createdAt,value
2023-03-10T15:11:04.837Z,16.50
2023-03-10T15:13:35.305Z,22.10
2023-03-10T15:16:09.077Z,16.20
2023-03-10T15:18:38.163Z,22.00
2023-03-10T15:21:06.334Z,30.70
2023-03-10T15:23:34.780Z,17.50
2023-03-10T15:26:09.645Z,25.80
2023-03-10T15:28:37.806Z,24.70
2023-03-10T15:31:06.726Z,20.20
2023-03-10T15:33:35.077Z,21.90
2023-03-10T15:36:03.498Z,26.70
2023-03-10T15:38:32.123Z,16.10
2023-03-10T15:41:00.680Z,19.60
2023-03-10T15:43:29.325Z,18.80
2023-03-10T15:45:57.425Z,27.00
2023-03-10T15:48:25.440Z,19.80
2023-03-10T15:50:53.625Z,15.20
2023-03-10T15:53:27.789Z,20.20
2023-03-10T15:55:56.417Z,20.50
2023-03-10T15:58:24.451Z,12.60
2023-03-10T16:00:52.429Z,15.70
2023-03-10T16:03:20.650Z,18.20
2023-03-10T16:05:49.553Z,16.00
2023-03-10T16:08:19.228Z,21.10
2023-03-10T16:10:54.364Z,12.60
2023-03-10T16:13:23.974Z,14.10
2023-03-10T16:15:52.943Z,18.10
2023-03-10T16:18:21.473Z,17.70
2023-03-10T16:20:58.759Z,16.50
2023-03-10T16:23:28.407Z,9.80
2023-03-10T16:26:19.556Z,8.90
2023-03-10T16:28:55.112Z,15.40
2023-03-10T16:31:24.789Z,15.30
2023-03-10T16:33:54.056Z,15.40
2023-03-10T16:36:24.763Z,13.00
2023-03-10T16:38:56.434Z,14.30
2023-03-10T16:41:24.581Z,10.50
2023-03-10T16:43:54.630Z,14.40
2023-03-10T16:46:30.137Z,13.30
2023-03-10T16:51:29.968Z,9.10
2023-03-10T16:54:06.340Z,11.90
2023-03-10T16:56:42.492Z,7.80
2023-03-10T16:59:28.793Z,15.30
2023-03-10T17:01:56.911Z,9.40
2023-03-10T17:04:25.149Z,13.90
2023-03-10T17:06:53.308Z,13.80
2023-03-10T17:09:21.879Z,11.50
2023-03-10T17:11:54.902Z,12.60
2023-03-10T17:14:23.881Z,8.50
2023-03-10T17:16:53.881Z,9.10
2023-03-10T17:19:28.649Z,12.10
2023-03-10T17:21:57.404Z,6.60
2023-03-10T17:24:27.283Z,6.40
2023-03-10T17:26:56.891Z,10.30
2023-03-10T17:29:25.007Z,10.00
2023-03-10T17:31:53.181Z,11.20
2023-03-10T17:34:21.409Z,10.50
2023-03-10T17:36:50.771Z,8.30
2023-03-10T17:39:21.735Z,8.00
2023-03-10T17:41:50.246Z,5.50
2023-03-10T17:44:19.987Z,7.40
2023-03-10T17:46:52.939Z,6.90
2023-03-10T17:49:21.312Z,8.80
2023-03-10T17:51:49.419Z,10.50
2023-03-10T17:54:20.265Z,11.80
2023-03-10T17:56:48.894Z,8.90
2023-03-10T17:59:17.110Z,6.70
2023-03-10T18:01:45.927Z,8.00
2023-03-10T18:04:14.044Z,10.20
2023-03-10T18:06:42.766Z,6.40
2023-03-10T18:09:30.711Z,6.00
2023-03-10T18:12:01.452Z,12.10
2023-03-10T18:14:30.369Z,7.30
2023-03-10T18:16:58.478Z,7.40
2023-03-10T18:19:31.687Z,6.80
2023-03-10T18:22:08.165Z,6.30
2023-03-10T18:24:43.068Z,7.30
2023-03-10T18:27:11.907Z,6.80
2023-03-10T18:29:40.052Z,6.90
2023-03-10T18:32:08.159Z,8.70
2023-03-10T18:34:38.784Z,6.40
2023-03-10T18:37:07.154Z,7.40
2023-03-10T18:39:36.413Z,6.50
2023-03-10T18:42:04.913Z,7.00
2023-03-10T18:44:39.013Z,6.30
2023-03-10T18:47:07.610Z,6.90
2023-03-10T18:49:36.090Z,6.70
2023-03-10T18:52:04.508Z,5.30
2023-03-10T18:54:32.641Z,6.00
2023-03-10T18:57:01.851Z,5.90
2023-03-10T18:59:30.367Z,7.60
2023-03-10T19:01:59.304Z,5.40
2023-03-10T19:04:27.534Z,7.00
2023-03-10T19:06:55.599Z,9.10
2023-03-10T19:09:29.281Z,6.70
2023-03-10T19:11:57.580Z,8.20
2023-03-10T19:14:26.113Z,6.30
2023-03-10T19:16:54.218Z,7.70
2023-03-10T19:19:22.783Z,7.50
2023-03-10T19:21:50.770Z,7.40
2023-03-10T19:24:18.881Z,6.50
2023-03-10T19:26:48.220Z,7.00
2023-03-10T19:29:16.492Z,6.80
2023-03-10T19:31:47.415Z,6.50
2023-03-10T19:34:15.828Z,6.20
2023-03-10T19:36:43.837Z,5.60
2023-03-10T19:39:14.720Z,7.60
2023-03-10T19:41:43.025Z,6.40
2023-03-10T19:44:11.782Z,6.00
2023-03-10T19:46:40.881Z,6.80
2023-03-10T19:49:10.184Z,6.40
2023-03-10T19:51:38.580Z,7.00
2023-03-10T19:54:07.635Z,8.40
2023-03-10T19:56:38.696Z,5.30
2023-03-10T19:59:06.906Z,6.00
2023-03-10T20:01:42.311Z,5.60
2023-03-10T20:04:10.997Z,5.80
2023-03-10T20:06:39.201Z,9.40
2023-03-10T20:09:10.742Z,5.80
2023-03-10T20:11:40.598Z,6.40
2023-03-10T20:14:09.031Z,7.60
2023-03-10T20:16:38.341Z,5.70
2023-03-10T20:19:06.512Z,5.90
2023-03-10T20:21:34.587Z,6.00
2023-03-10T20:24:04.781Z,6.50
2023-03-10T20:26:33.733Z,5.80
2023-03-10T20:29:01.906Z,7.40
2023-03-10T20:31:34.154Z,6.30
2023-03-10T20:34:03.618Z,5.70
2023-03-10T20:36:31.648Z,6.20
2023-03-10T20:39:00.224Z,9.70
2023-03-10T20:41:28.349Z,5.50
2023-03-10T20:43:56.458Z,6.20
2023-03-10T20:46:25.842Z,5.30
2023-03-10T20:48:54.093Z,6.90
2023-03-10T20:51:23.440Z,7.70
2023-03-10T20:53:52.065Z,6.50
2023-03-10T20:56:20.322Z,7.00
2023-03-10T20:58:48.363Z,5.40
2023-03-10T21:01:18.697Z,8.30
2023-03-10T21:03:47.285Z,6.10
2023-03-10T21:06:15.538Z,6.00
2023-03-10T21:08:48.392Z,5.90
2023-03-10T21:11:19.888Z,5.80
2023-03-10T21:13:48.163Z,6.70
2023-03-10T21:16:16.531Z,5.60
2023-03-10T21:18:44.651Z,5.00
2023-03-10T21:21:13.930Z,7.00
2023-03-10T21:23:42.167Z,5.70
2023-03-10T21:26:12.563Z,6.30
2023-03-10T21:28:41.362Z,7.20
2023-03-10T21:31:09.521Z,5.00
2023-03-10T21:33:38.735Z,5.20
2023-03-10T21:36:07.761Z,6.20
2023-03-10T21:38:37.750Z,6.00
2023-03-10T21:41:06.332Z,5.80
2023-03-10T21:43:38.756Z,5.50
2023-03-10T21:46:07.254Z,6.20
2023-03-10T21:48:35.291Z,5.40
2023-03-10T21:51:04.257Z,6.50
2023-03-10T21:53:32.398Z,5.50
2023-03-10T21:56:01.028Z,5.80
2023-03-10T21:58:29.592Z,5.50
2023-03-10T22:00:57.501Z,7.40
2023-03-10T22:03:25.817Z,5.80
2023-03-10T22:05:54.440Z,5.60
2023-03-10T22:08:24.126Z,7.70
2023-03-10T22:10:53.363Z,5.70
2023-03-10T22:13:22.220Z,5.20
2023-03-10T22:15:50.553Z,5.70
2023-03-10T22:18:24.257Z,6.20
2023-03-10T22:20:52.322Z,5.80
2023-03-10T22:23:20.374Z,5.50
2023-03-10T22:25:48.620Z,6.20
2023-03-10T22:28:17.092Z,6.40
2023-03-10T22:30:46.593Z,5.60
2023-03-10T22:33:16.308Z,4.80
2023-03-10T22:35:51.544Z,7.60
2023-03-10T22:38:22.243Z,6.50
2023-03-10T22:40:50.190Z,5.60
2023-03-10T22:43:18.442Z,5.30
2023-03-10T22:45:46.883Z,5.50
2023-03-10T22:48:15.347Z,6.40
2023-03-10T22:50:44.479Z,5.80
2023-03-10T22:53:17.561Z,7.30
2023-03-10T22:55:46.675Z,5.60
2023-03-10T22:58:16.302Z,5.90
2023-03-10T23:00:46.394Z,5.60
2023-03-10T23:03:16.033Z,5.40
2023-03-10T23:05:45.264Z,6.20
2023-03-10T23:08:18.600Z,6.20
2023-03-10T23:10:46.816Z,5.70
2023-03-10T23:13:16.750Z,5.90
2023-03-10T23:15:45.021Z,5.30
2023-03-10T23:18:13.226Z,5.60
2023-03-10T23:20:44.681Z,6.50
2023-03-10T23:23:14.616Z,5.70
2023-03-10T23:25:47.083Z,5.80
2023-03-10T23:28:20.453Z,5.00
2023-03-10T23:30:48.787Z,6.30
2023-03-10T23:33:21.175Z,6.20
2023-03-10T23:35:54.176Z,5.50
2023-03-10T23:38:24.010Z,5.00
2023-03-10T23:40:52.691Z,6.10
2023-03-10T23:43:20.674Z,5.40
2023-03-10T23:45:53.331Z,6.00
2023-03-10T23:48:24.715Z,6.50
2023-03-10T23:50:52.763Z,7.10
2023-03-10T23:53:21.240Z,4.90
2023-03-10T23:55:49.456Z,5.50
2023-03-10T23:58:18.230Z,5.10
